Terminal Aerodrome Forecast
Issued by NWS Cleveland, OH

Home | Current Version | Previous Version | Graphics & Text | Print | Product List | Glossary On
Versions: 1 2 3 4 5 6 7 8 9 10 11 12 13 14 15 16 17 18 19 20 21 22 23 24 25 26 27 28
000
FTUS41 KCLE 251300 AAA
TAFCLE
TAF AMD
KCLE 251321Z 2513/2618 16012G18KT 4SM -RA BR SCT030 OVC050
      WS020/18045KT
      TEMPO 2513/2515 2SM -RA BKN030
     FM251500 19015G25KT P6SM VCSH BKN020 OVC050
      TEMPO 2515/2517 BKN015 OVC025
     FM252000 24014G22KT P6SM BKN025 BKN045
     FM252200 22010KT P6SM SCT025 BKN250
     FM261000 24005KT P6SM VCSH BKN070 OVC100
     FM261300 36003KT 3SM -RA BR OVC012=

USA.gov is the U.S. government's official web portal to all federal, state and local government web resources and services.